Data for 01/15/2011

Time Sea-Level Adjusted Pressure Absolute Pressure Temperature Relative Humidity Dew Point   
(mb) (inHg) (mb) (inHg) (C) (F) (%) (C) (F)
00:05 1023 30.21 852 25.16 5.4 41.8 58 -2 28.3
00:10 1023 30.21 852 25.16 5.2 41.4 58 -2.4 27.6
00:15 1023 30.21 852 25.16 5.4 41.8 56 -2.8 27
00:20 1023 30.21 852 25.16 5.6 42.2 56 -2.6 27.4
00:25 1023 30.21 852 25.16 5.7 42.3 54 -2.9 26.7
00:30 1022 30.18 852 25.16 6 42.9 53 -2.9 26.8
00:35 1022 30.18 852 25.16 6.6 43.9 51 -2.7 27.2
00:40 1022 30.18 851 25.13 6.6 44 52 -2.5 27.5
00:45 1022 30.18 851 25.13 6.5 43.7 52 -2.6 27.3
00:50 1022 30.18 851 25.13 6.4 43.6 53 -2.4 27.7
00:55 1022 30.18 851 25.13 6.1 42.9 55 -2.4 27.8
01:00 1022 30.18 851 25.13 5.9 42.7 55 -2.4 27.7
01:05 1022 30.18 851 25.13 6.1 43 53 -2.8 27
01:10 1022 30.18 851 25.13 6.5 43.6 53 -2.5 27.5
01:15 1022 30.18 851 25.13 6.4 43.5 53 -2.4 27.6
01:20 1022 30.18 851 25.13 6.3 43.3 52 -2.7 27.1
01:25 1022 30.18 851 25.13 6.4 43.5 53 -2.6 27.3
01:30 1021 30.15 851 25.13 6.3 43.3 53 -2.6 27.4
01:35 1021 30.15 851 25.13 6.1 43.1 53 -2.7 27.2
01:40 1021 30.15 851 25.13 6.1 42.9 53 -2.7 27.1
01:45 1021 30.15 851 25.13 6.6 43.8 50 -3.2 26.3
01:50 1021 30.15 851 25.13 6.8 44.2 51 -2.5 27.4
01:55 1021 30.15 851 25.13 6.5 43.8 51 -2.8 27
02:00 1022 30.18 851 25.13 6.3 43.4 54 -2.4 27.8
02:05 1022 30.18 851 25.13 6.2 43.1 51 -3.3 26.1
02:10 1022 30.18 851 25.13 6.5 43.8 52 -2.7 27.1
02:15 1022 30.18 851 25.13 6.3 43.3 53 -2.6 27.4
02:20 1022 30.18 851 25.13 6.3 43.3 52 -2.9 26.7
02:25 1022 30.18 851 25.13 6.6 43.9 49 -3.3 26.1
02:30 1022 30.18 851 25.13 7 44.7 49 -3 26.6
02:35 1022 30.18 851 25.13 6.9 44.5 49 -3 26.5
02:40 1022 30.18 851 25.13 6.7 44.1 50 -3.1 26.4
02:45 1022 30.18 851 25.13 6.6 43.8 50 -3.1 26.3
02:50 1022 30.18 851 25.13 6.4 43.6 51 -3 26.6
02:55 1022 30.18 851 25.13 6.3 43.3 52 -2.9 26.7
03:00 1022 30.18 851 25.13 6 42.9 53 -2.9 26.9
03:05 1022 30.18 851 25.13 6 42.8 53 -2.9 26.7
03:10 1022 30.18 851 25.13 5.9 42.6 54 -2.8 27
03:15 1022 30.18 851 25.13 5.7 42.3 54 -2.8 26.9
03:20 1022 30.18 851 25.13 5.6 42.2 54 -3 26.7
03:25 1022 30.18 851 25.13 5.7 42.3 53 -3 26.6
03:30 1022 30.18 851 25.13 5.9 42.6 53 -3 26.6
03:35 1022 30.18 851 25.13 5.8 42.5 53 -2.9 26.8
03:40 1022 30.18 851 25.13 5.7 42.2 54 -2.8 27
03:45 1022 30.18 851 25.13 5.6 42 55 -2.8 26.9
03:50 1022 30.18 851 25.13 5.6 42 55 -2.8 26.9
03:55 1022 30.18 851 25.13 5.6 42 54 -2.9 26.7
04:00 1022 30.18 851 25.13 5.6 42 54 -3.1 26.5
04:05 1022 30.18 851 25.13 5.7 42.2 52 -3.3 26
04:10 1022 30.18 851 25.13 5.9 42.5 52 -3.3 26.1
04:15 1022 30.18 851 25.13 6 42.7 52 -3.1 26.4
04:20 1022 30.18 851 25.13 5.9 42.6 55 -2.5 27.5
04:25 1022 30.18 851 25.13 5.4 41.7 56 -2.6 27.3
04:30 1022 30.18 851 25.13 5.2 41.4 55 -3 26.7
04:35 1022 30.18 851 25.13 5.4 41.7 55 -2.9 26.8
04:40 1022 30.18 851 25.13 5.2 41.4 56 -2.8 27
04:45 1022 30.18 851 25.13 5.1 41.1 57 -2.8 27
04:50 1022 30.18 851 25.13 5.3 41.5 53 -3.6 25.4
04:55 1022 30.18 851 25.13 5.9 42.7 47 -4.5 23.9
05:00 1022 30.18 851 25.13 6.6 43.9 43 -4.9 23.1
05:05 1022 30.18 851 25.13 6.7 44.1 47 -3.7 25.4
05:10 1021 30.15 851 25.13 6.1 43 49 -3.7 25.4
05:15 1022 30.18 851 25.13 5.7 42.2 52 -3.4 25.9
05:20 1021 30.15 851 25.13 5.4 41.7 54 -3.2 26.2
05:25 1021 30.15 851 25.13 5 41 57 -2.9 26.8
05:30 1021 30.15 850 25.1 4.8 40.7 54 -3.6 25.6
05:35 1021 30.15 850 25.1 5 41 53 -3.6 25.4
05:40 1021 30.15 850 25.1 5.2 41.3 50 -4.4 24.1
05:45 1021 30.15 850 25.1 5.6 42.1 49 -4.2 24.5
05:50 1021 30.15 850 25.1 5.7 42.2 48 -4.3 24.2
05:55 1021 30.15 851 25.13 5.8 42.4 48 -4.4 24.1
06:00 1021 30.15 851 25.13 5.8 42.4 48 -4.5 23.9
06:05 1022 30.18 851 25.13 5.8 42.4 48 -4.4 24
06:10 1022 30.18 851 25.13 5.7 42.3 48 -4.4 24.1
06:15 1022 30.18 851 25.13 5.7 42.3 47 -4.8 23.4
06:20 1022 30.18 851 25.13 5.8 42.5 48 -4.4 24
06:25 1022 30.18 851 25.13 5.7 42.2 48 -4.5 23.8
06:30 1021 30.15 851 25.13 5.7 42.3 48 -4.5 23.9
06:35 1021 30.15 851 25.13 5.7 42.3 47 -4.6 23.8
06:40 1021 30.15 851 25.13 5.9 42.5 46 -4.8 23.4
06:45 1021 30.15 851 25.13 6 42.7 46 -4.7 23.6
06:50 1021 30.15 851 25.13 6 42.8 46 -4.8 23.4
06:55 1021 30.15 850 25.1 6 42.7 45 -5 22.9
07:00 1021 30.15 850 25.1 6 42.9 45 -5 22.9
07:05 1021 30.15 850 25.1 6.1 42.9 44 -5.4 22.3
07:10 1021 30.15 850 25.1 6.1 43 44 -5.2 22.7
07:15 1021 30.15 850 25.1 6.1 43 43 -5.5 22.1
07:20 1021 30.15 850 25.1 6.1 43 44 -5.1 22.8
07:25 1021 30.15 850 25.1 6.1 42.9 42 -5.8 21.6
07:30 1021 30.15 850 25.1 6.2 43.2 43 -5.4 22.2
07:35 1021 30.15 850 25.1 6 42.8 45 -5.1 22.9
07:40 1021 30.15 850 25.1 5.7 42.3 45 -5.3 22.5
07:45 1021 30.15 850 25.1 5.7 42.3 45 -5.2 22.7
07:50 1020 30.12 850 25.1 5.6 42.1 46 -5 23
07:55 1020 30.12 849 25.07 5.5 42 45 -5.6 22
08:00 1021 30.15 850 25.1 5.6 42.1 45 -5.3 22.5
08:05 1020 30.12 850 25.1 5.6 42 45 -5.4 22.2
08:10 1020 30.12 850 25.1 5.5 41.9 45 -5.5 22.1
08:15 1020 30.12 850 25.1 5.5 41.9 45 -5.6 21.9
08:20 1020 30.12 850 25.1 5.5 42 44 -5.8 21.6
08:25 1020 30.12 850 25.1 5.6 42.1 45 -5.5 22.1
08:30 1020 30.12 850 25.1 5.6 42 44 -5.7 21.7
08:35 1020 30.12 850 25.1 5.5 42 43 -5.9 21.4
08:40 1020 30.12 850 25.1 5.8 42.5 40 -6.6 20.1
08:45 1020 30.12 850 25.1 6 42.9 44 -5.4 22.2
08:50 1020 30.12 850 25.1 5.7 42.3 43 -5.8 21.6
08:55 1021 30.15 850 25.1 5.9 42.6 43 -5.9 21.4
09:00 1021 30.15 850 25.1 5.9 42.6 44 -5.4 22.3
09:05 1021 30.15 850 25.1 5.5 41.9 45 -5.4 22.2
09:10 1021 30.15 850 25.1 5.4 41.8 46 -5.4 22.3
09:15 1021 30.15 850 25.1 5.4 41.7 45 -5.5 22.1
09:20 1021 30.15 850 25.1 5.4 41.7 46 -5.4 22.3
09:25 1021 30.15 850 25.1 5.4 41.7 46 -5.2 22.6
09:30 1021 30.15 850 25.1 5.3 41.6 46 -5.5 22.2
09:35 1021 30.15 850 25.1 5.3 41.5 47 -5.2 22.7
09:40 1021 30.15 851 25.13 5.4 41.7 45 -5.5 22
09:45 1021 30.15 851 25.13 5.7 42.2 45 -5.3 22.5
09:50 1022 30.18 851 25.13 5.6 42 48 -4.6 23.7
09:55 1021 30.15 851 25.13 5.4 41.7 48 -4.8 23.4
10:00 1021 30.15 851 25.13 5.6 42 44 -5.7 21.7
10:05 1021 30.15 850 25.1 6 42.9 42 -6 21.3
10:10 1021 30.15 850 25.1 6.2 43.2 42 -5.7 21.8
10:15 1021 30.15 850 25.1 6.2 43.2 42 -5.7 21.7
10:20 1021 30.15 850 25.1 6.2 43.1 43 -5.5 22.1
10:25 1021 30.15 850 25.1 6.1 43 42 -5.8 21.5
10:30 1021 30.15 850 25.1 6.1 42.9 42 -5.9 21.3
10:35 1021 30.15 850 25.1 6.1 43 43 -5.5 22.1
10:40 1021 30.15 850 25.1 6.1 43 42 -5.8 21.6
10:45 1021 30.15 850 25.1 6.1 43 43 -5.7 21.8
10:50 1021 30.15 850 25.1 6.1 42.9 43 -5.5 22
10:55 1021 30.15 850 25.1 6.1 42.9 42 -5.9 21.4
11:00 1021 30.15 850 25.1 6.1 43 43 -5.5 22.2
11:05 1021 30.15 850 25.1 6.1 43 41 -6.1 21
11:10 1021 30.15 850 25.1 6.2 43.1 43 -5.4 22.2
11:15 1021 30.15 850 25.1 5.9 42.7 44 -5.5 22.2
11:20 1021 30.15 850 25.1 5.9 42.6 44 -5.4 22.3
11:25 1021 30.15 850 25.1 5.9 42.5 42 -6 21.3
11:30 1021 30.15 850 25.1 6 42.8 43 -5.5 22.1
11:35 1021 30.15 850 25.1 5.8 42.5 46 -5 23.1
11:40 1021 30.15 850 25.1 5.6 42.1 46 -5 23
11:45 1021 30.15 850 25.1 5.6 42 46 -5.1 22.9
11:50 1021 30.15 850 25.1 5.6 42.1 47 -4.9 23.2
11:55 1021 30.15 850 25.1 5.6 42.1 46 -5 23
12:00 1021 30.15 850 25.1 5.7 42.3 46 -5 22.9
12:05 1021 30.15 850 25.1 5.7 42.3 46 -5.1 22.8
12:10 1021 30.15 850 25.1 5.7 42.3 44 -5.6 21.9
12:15 1021 30.15 850 25.1 6 42.9 43 -5.6 22
12:20 1021 30.15 850 25.1 6.3 43.3 41 -6.1 21.1
12:25 1021 30.15 850 25.1 6.4 43.5 43 -5.4 22.3
12:30 1021 30.15 850 25.1 6.3 43.3 43 -5.4 22.3
12:35 1021 30.15 850 25.1 6.3 43.3 42 -5.6 21.9
12:40 1021 30.15 850 25.1 6.3 43.4 43 -5.4 22.2
12:45 1021 30.15 850 25.1 6.4 43.5 43 -5.2 22.7
12:50 1020 30.12 850 25.1 6.2 43.2 44 -5.1 22.8
12:55 1020 30.12 849 25.07 6.2 43.1 44 -5.1 22.8
13:00 1020 30.12 849 25.07 6.3 43.3 43 -5.4 22.2
13:05 1020 30.12 849 25.07 6.3 43.3 44 -5.1 22.8
13:10 1020 30.12 849 25.07 6.4 43.5 42 -5.5 22.1
13:15 1020 30.12 849 25.07 6.4 43.6 43 -5.3 22.4
13:20 1020 30.12 849 25.07 6.4 43.6 43 -5.2 22.7
13:25 1020 30.12 849 25.07 6.4 43.4 44 -5 23.1
13:30 1020 30.12 849 25.07 6.2 43.2 43 -5.3 22.4
13:35 1020 30.12 849 25.07 6.4 43.4 42 -5.6 22
13:40 1020 30.12 849 25.07 6.5 43.7 43 -5.3 22.5
13:45 1020 30.12 849 25.07 6.5 43.7 44 -5 23
13:50 1020 30.12 849 25.07 6.5 43.8 44 -4.7 23.5
13:55 1020 30.12 849 25.07 6.4 43.5 47 -4.1 24.6
14:00 1020 30.12 849 25.07 6.1 42.9 48 -4.1 24.6
14:05 1020 30.12 849 25.07 5.7 42.3 50 -4 24.8
14:10 1019 30.09 849 25.07 5.5 41.9 51 -3.8 25.1
14:15 1019 30.09 849 25.07 5.5 41.9 48 -4.7 23.5
14:20 1019 30.09 849 25.07 5.8 42.4 48 -4.5 24
14:25 1019 30.09 849 25.07 6 42.8 44 -5.3 22.5
14:30 1019 30.09 848 25.04 6.5 43.7 43 -5.3 22.4
14:35 1019 30.09 849 25.07 6.7 44 45 -4.5 23.9
14:40 1020 30.12 849 25.07 6.5 43.6 46 -4.4 24.1
14:45 1019 30.09 849 25.07 6.4 43.5 47 -4.2 24.5
14:50 1019 30.09 849 25.07 6.3 43.4 46 -4.5 23.8
14:55 1020 30.12 849 25.07 6.4 43.6 46 -4.2 24.4
15:00 1020 30.12 849 25.07 6.4 43.4 47 -4.2 24.5
15:05 1020 30.12 849 25.07 6.2 43.2 48 -3.9 24.9
15:10 1020 30.12 849 25.07 6 42.8 48 -4.1 24.7
15:15 1020 30.12 849 25.07 6 42.8 49 -4 24.9
15:20 1020 30.12 849 25.07 5.9 42.7 49 -3.9 24.9
15:25 1020 30.12 849 25.07 5.8 42.5 50 -3.8 25.1
15:30 1020 30.12 849 25.07 5.8 42.4 50 -3.8 25.2
15:35 1020 30.12 849 25.07 5.8 42.4 50 -3.7 25.3
15:40 1020 30.12 849 25.07 5.7 42.2 54 -3 26.6
15:45 1020 30.12 849 25.07 5.3 41.5 55 -3.1 26.5
15:50 1020 30.12 849 25.07 5 41 55 -3.2 26.2
15:55 1020 30.12 849 25.07 4.9 40.9 55 -3.2 26.2
16:00 1020 30.12 849 25.07 4.8 40.7 57 -3 26.5
16:05 1020 30.12 849 25.07 4.8 40.6 57 -3.1 26.5
16:10 1020 30.12 849 25.07 4.9 40.9 56 -3.2 26.3
16:15 1020 30.12 849 25.07 4.9 40.8 56 -3.3 26.1
16:20 1020 30.12 849 25.07 5 40.9 56 -3.2 26.3
16:25 1020 30.12 849 25.07 5.3 41.6 54 -3.3 26.1
16:30 1020 30.12 849 25.07 5.4 41.8 54 -3.3 26.1
16:35 1020 30.12 849 25.07 5.2 41.4 55 -3.2 26.3
16:40 1020 30.12 849 25.07 5 41.1 55 -3.3 26.1
16:45 1020 30.12 849 25.07 5.2 41.3 52 -3.9 25.1
16:50 1020 30.12 849 25.07 5.2 41.4 54 -3.2 26.2
16:55 1020 30.12 849 25.07 5 41 56 -3 26.6
17:00 1020 30.12 849 25.07 4.7 40.4 57 -3.1 26.5
17:05 1020 30.12 849 25.07 4.5 40.2 58 -3 26.6
17:10 1020 30.12 849 25.07 4.5 40.1 58 -3 26.6
17:15 1020 30.12 849 25.07 4.4 40 58 -3.2 26.2
17:20 1020 30.12 849 25.07 4.5 40.1 58 -3.1 26.5
17:25 1020 30.12 849 25.07 4.5 40.1 58 -3.1 26.4
17:30 1020 30.12 849 25.07 4.4 40 57 -3.3 26
17:35 1020 30.12 849 25.07 4.5 40 56 -3.6 25.4
17:40 1020 30.12 849 25.07 4.6 40.2 55 -3.6 25.4
17:45 1020 30.12 849 25.07 4.7 40.4 54 -3.9 24.9
17:50 1020 30.12 849 25.07 4.8 40.7 52 -4.2 24.5
17:55 1019 30.09 849 25.07 4.9 40.8 51 -4.4 24
18:00 1019 30.09 849 25.07 5 41 50 -4.5 23.9
18:05 1019 30.09 848 25.04 5 41.1 49 -4.8 23.4
18:10 1019 30.09 848 25.04 5.1 41.1 49 -4.9 23.2
18:15 1019 30.09 848 25.04 5.1 41.2 50 -4.5 23.8
18:20 1019 30.09 848 25.04 4.9 40.7 51 -4.4 24.1
18:25 1019 30.09 848 25.04 4.6 40.3 51 -4.6 23.7
18:30 1019 30.09 848 25.04 4.7 40.5 50 -4.8 23.4
18:35 1019 30.09 848 25.04 4.7 40.5 51 -4.7 23.6
18:40 1019 30.09 848 25.04 4.5 40.1 53 -4.2 24.5
18:45 1019 30.09 848 25.04 4 39.3 55 -4.1 24.6
18:50 1019 30.09 848 25.04 3.7 38.6 57 -4 24.7
18:55 1019 30.09 848 25.04 3.5 38.2 56 -4.4 24.1
19:00 1019 30.09 848 25.04 3.5 38.3 55 -4.7 23.5
19:05 1019 30.09 848 25.04 3.6 38.4 55 -4.7 23.5
19:10 1019 30.09 848 25.04 3.4 38.2 54 -5 23.1
19:15 1019 30.09 848 25.04 3.4 38.1 53 -5.2 22.7
19:20 1019 30.09 848 25.04 3.4 38.1 53 -5.2 22.6
19:25 1019 30.09 848 25.04 3.4 38 52 -5.5 22
19:30 1019 30.09 848 25.04 3.4 38 52 -5.5 22.1
19:35 1019 30.09 848 25.04 3.4 38.1 51 -5.9 21.3
19:40 1019 30.09 848 25.04 3.6 38.4 49 -6.1 21.1
19:45 1019 30.09 848 25.04 3.7 38.7 48 -6.2 20.9
19:50 1019 30.09 848 25.04 3.9 39 47 -6.4 20.5
19:55 1019 30.09 848 25.04 3.9 39.1 48 -6.2 20.8
20:00 1019 30.09 848 25.04 3.9 39 48 -6.2 20.8
20:05 1019 30.09 848 25.04 3.8 38.9 48 -6.1 21.1
20:10 1019 30.09 848 25.04 3.6 38.5 49 -6 21.2
20:15 1018 30.06 848 25.04 3.4 38.1 51 -5.8 21.5
20:20 1018 30.06 848 25.04 3.2 37.8 52 -5.7 21.8
20:25 1019 30.09 848 25.04 3.1 37.6 53 -5.5 22.2
20:30 1019 30.09 848 25.04 2.9 37.2 54 -5.5 22.1
20:35 1018 30.06 848 25.04 2.7 36.9 54 -5.6 21.9
20:40 1018 30.06 848 25.04 2.7 36.8 54 -5.6 21.8
20:45 1018 30.06 847 25.01 2.7 36.9 53 -6 21.3
20:50 1018 30.06 847 25.01 2.9 37.3 52 -6 21.2
20:55 1018 30.06 847 25.01 3.3 37.9 51 -6 21.2
21:00 1018 30.06 847 25.01 3.3 37.9 50 -6.1 21
21:05 1018 30.06 847 25.01 3.3 38 50 -6.2 20.9
21:10 1018 30.06 847 25.01 3.3 37.9 51 -5.9 21.5
21:15 1018 30.06 847 25.01 3.1 37.6 51 -6 21.2
21:20 1018 30.06 847 25.01 3 37.4 52 -6 21.2
21:25 1018 30.06 847 25.01 2.9 37.3 52 -5.9 21.3
21:30 1018 30.06 847 25.01 2.8 37 53 -5.8 21.6
21:35 1018 30.06 847 25.01 2.4 36.4 55 -5.7 21.8
21:40 1018 30.06 847 25.01 1.8 35.3 57 -5.8 21.6
21:45 1018 30.06 847 25.01 1.7 35 58 -5.8 21.6
21:50 1018 30.06 847 25.01 1.8 35.2 55 -6.4 20.5
21:55 1018 30.06 847 25.01 2.3 36.2 51 -6.7 19.9
22:00 1017 30.03 847 25.01 2.6 36.7 51 -6.6 20.2
22:05 1017 30.03 846 24.98 2.7 36.8 51 -6.5 20.4
22:10 1017 30.03 846 24.98 2.6 36.7 52 -6.3 20.7
22:15 1017 30.03 846 24.98 2.5 36.6 52 -6.2 20.8
22:20 1017 30.03 846 24.98 2.5 36.6 53 -6.1 21
22:25 1017 30.03 846 24.98 2.5 36.5 52 -6.4 20.4
22:30 1017 30.03 846 24.98 2.6 36.7 52 -6.1 20.9
22:35 1017 30.03 846 24.98 2.5 36.5 53 -6 21.1
22:40 1016 30 845 24.95 2.2 35.9 55 -5.9 21.4
22:45 1016 30 845 24.95 1.9 35.4 56 -6.1 21.1
22:50 1016 30 845 24.95 1.6 34.9 57 -6 21.2
22:55 1016 30 845 24.95 1.5 34.7 58 -5.9 21.4
23:00 1016 30 845 24.95 1.4 34.6 57 -6.1 21
23:05 1016 30 845 24.95 1.7 35.1 55 -6.4 20.5
23:10 1016 30 845 24.95 2 35.6 54 -6.4 20.6
23:15 1015 29.97 845 24.95 2 35.5 55 -6.2 20.8
23:20 1015 29.97 844 24.92 1.8 35.2 55 -6.3 20.7
23:25 1015 29.97 844 24.92 1.6 34.9 56 -6.2 20.9
23:30 1015 29.97 844 24.92 1.4 34.6 56 -6.4 20.5
23:35 1015 29.97 844 24.92 1.4 34.6 56 -6.5 20.3
23:40 1015 29.97 844 24.92 1.5 34.7 55 -6.6 20.1
23:45 1015 29.97 844 24.92 1.9 35.4 52 -7 19.5
23:50 1014 29.94 844 24.92 2.2 36 51 -7 19.4
23:55 1014 29.94 843 24.89 2.3 36.2 51 -6.8 19.8
24:00 1014 29.94 843 24.89 2.3 36.2 51 -6.7 20